createdAt,value
2022-11-29T00:01:54.140Z,4.25
2022-11-29T00:04:22.053Z,4.07
2022-11-29T00:06:49.949Z,4.40
2022-11-29T00:09:19.089Z,4.40
2022-11-29T00:12:04.135Z,4.40
2022-11-29T00:14:32.022Z,4.03
2022-11-29T00:17:02.461Z,4.35
2022-11-29T00:19:30.860Z,4.38
2022-11-29T00:21:58.646Z,4.10
2022-11-29T00:24:26.651Z,4.43
2022-11-29T00:26:54.467Z,4.63
2022-11-29T00:29:22.258Z,4.22
2022-11-29T00:31:50.386Z,4.70
2022-11-29T00:34:18.203Z,4.38
2022-11-29T00:36:46.231Z,4.20
2022-11-29T00:39:14.033Z,4.28
2022-11-29T00:41:41.978Z,4.50
2022-11-29T00:44:11.140Z,4.45
2022-11-29T00:46:41.824Z,4.20
2022-11-29T00:49:09.706Z,4.63
2022-11-29T00:51:37.462Z,4.22
2022-11-29T00:54:05.315Z,4.13
2022-11-29T00:56:33.119Z,4.38
2022-11-29T00:59:00.975Z,4.22
2022-11-29T01:01:28.822Z,4.50
2022-11-29T01:03:56.722Z,4.32
2022-11-29T01:06:24.577Z,3.85
2022-11-29T01:08:52.364Z,4.28
2022-11-29T01:11:20.113Z,4.53
2022-11-29T01:13:47.908Z,4.55
2022-11-29T01:16:15.789Z,4.30
2022-11-29T01:18:43.718Z,4.30
2022-11-29T01:21:11.488Z,4.50
2022-11-29T01:23:39.362Z,4.35
2022-11-29T01:26:07.199Z,4.35
2022-11-29T01:28:35.106Z,4.30
2022-11-29T01:31:03.041Z,4.15
2022-11-29T01:33:30.852Z,4.40
2022-11-29T01:35:58.689Z,4.15
2022-11-29T01:38:26.514Z,4.60
2022-11-29T01:40:54.321Z,4.05
2022-11-29T01:43:22.232Z,4.53
2022-11-29T01:45:50.123Z,4.25
2022-11-29T01:48:20.043Z,4.40
2022-11-29T01:50:47.879Z,4.35
2022-11-29T01:53:15.727Z,4.32
2022-11-29T01:55:43.545Z,4.18
2022-11-29T01:58:11.575Z,4.57
2022-11-29T02:00:39.658Z,4.57
2022-11-29T02:03:07.591Z,4.40
2022-11-29T02:05:35.465Z,4.53
2022-11-29T02:08:03.243Z,4.60
2022-11-29T02:10:30.992Z,4.40
2022-11-29T02:12:58.846Z,4.50
2022-11-29T02:15:26.812Z,4.63
2022-11-29T02:17:54.625Z,4.45
2022-11-29T02:20:22.866Z,4.25
2022-11-29T02:22:50.650Z,4.40
2022-11-29T02:25:20.801Z,4.57
2022-11-29T02:27:48.550Z,4.07
2022-11-29T02:30:16.536Z,4.22
2022-11-29T02:32:44.344Z,4.10
2022-11-29T02:35:12.481Z,4.00
2022-11-29T02:37:40.319Z,4.30
2022-11-29T02:40:08.447Z,4.38
2022-11-29T02:42:54.397Z,4.18
2022-11-29T02:45:24.161Z,4.38
2022-11-29T02:47:52.106Z,4.32
2022-11-29T02:50:19.886Z,4.53
2022-11-29T02:52:47.746Z,4.07
2022-11-29T02:55:15.588Z,4.13
2022-11-29T02:57:43.360Z,4.15
2022-11-29T03:00:11.327Z,4.03
2022-11-29T03:02:39.152Z,4.05
2022-11-29T03:05:09.114Z,4.45
2022-11-29T03:07:37.141Z,4.30
2022-11-29T03:10:05.047Z,4.30
2022-11-29T03:12:32.861Z,4.40
2022-11-29T03:15:00.721Z,4.20
2022-11-29T03:17:28.707Z,4.18
2022-11-29T03:19:57.019Z,3.92
2022-11-29T03:22:24.832Z,4.18
2022-11-29T03:24:52.735Z,4.35
2022-11-29T03:27:20.700Z,4.10
2022-11-29T03:29:48.545Z,4.03
2022-11-29T03:32:16.731Z,3.95
2022-11-29T03:34:45.020Z,4.32
2022-11-29T03:37:12.947Z,4.13
2022-11-29T03:39:40.932Z,3.92
2022-11-29T03:42:08.698Z,4.18
2022-11-29T03:44:36.482Z,4.10
2022-11-29T03:47:04.437Z,3.83
2022-11-29T03:49:32.304Z,4.55
2022-11-29T03:52:00.271Z,4.18
2022-11-29T03:54:28.225Z,4.20
2022-11-29T03:56:56.207Z,4.25
2022-11-29T03:59:24.039Z,4.05
2022-11-29T04:01:52.003Z,4.13
2022-11-29T04:04:20.005Z,4.30
2022-11-29T04:06:47.872Z,4.25
2022-11-29T04:09:15.676Z,4.00
2022-11-29T04:11:54.945Z,4.20
2022-11-29T04:14:22.965Z,4.15
2022-11-29T04:16:50.887Z,4.00
2022-11-29T04:19:18.770Z,4.10
2022-11-29T04:22:07.601Z,4.03
2022-11-29T04:25:00.452Z,3.75
2022-11-29T04:30:55.417Z,3.90
2022-11-29T04:33:31.465Z,4.22
2022-11-29T04:39:01.631Z,3.97
2022-11-29T04:41:31.891Z,4.20
2022-11-29T04:44:04.096Z,4.20
2022-11-29T04:46:35.302Z,3.95
2022-11-29T04:49:08.725Z,4.50
2022-11-29T04:51:41.113Z,4.25
2022-11-29T04:54:13.121Z,4.32
2022-11-29T04:56:40.974Z,3.90
2022-11-29T04:59:15.010Z,4.10
2022-11-29T05:01:45.329Z,4.13
2022-11-29T05:08:04.799Z,4.20
2022-11-29T05:16:10.443Z,3.83
2022-11-29T05:18:40.541Z,3.88
2022-11-29T05:21:16.246Z,4.10
2022-11-29T05:23:44.539Z,3.67
2022-11-29T05:26:13.370Z,4.10
2022-11-29T05:28:44.034Z,3.92
2022-11-29T05:31:14.733Z,3.78
2022-11-29T05:33:42.819Z,4.03
2022-11-29T05:42:21.312Z,3.97
2022-11-29T05:44:49.245Z,4.05
2022-11-29T05:47:17.194Z,4.05
2022-11-29T05:49:45.049Z,3.90
2022-11-29T05:52:12.847Z,3.90
2022-11-29T05:54:40.766Z,4.03
2022-11-29T05:57:08.698Z,3.78
2022-11-29T05:59:36.426Z,3.85
2022-11-29T06:02:04.277Z,4.03
2022-11-29T06:04:32.292Z,3.97
2022-11-29T06:07:00.119Z,3.92
2022-11-29T06:09:27.933Z,3.85
2022-11-29T06:11:56.871Z,3.60
2022-11-29T06:14:26.174Z,3.60
2022-11-29T06:16:54.084Z,3.60
2022-11-29T06:19:21.988Z,3.60
2022-11-29T06:21:49.899Z,3.85
2022-11-29T06:24:21.819Z,3.60
2022-11-29T06:26:53.243Z,3.83
2022-11-29T06:29:22.147Z,3.78
2022-11-29T06:31:49.988Z,3.40
2022-11-29T06:34:17.893Z,3.53
2022-11-29T06:36:46.152Z,3.30
2022-11-29T06:39:13.995Z,3.75
2022-11-29T06:41:41.831Z,4.03
2022-11-29T06:44:09.702Z,3.28
2022-11-29T06:46:37.605Z,3.40
2022-11-29T06:49:05.585Z,3.33
2022-11-29T06:51:33.423Z,3.95
2022-11-29T06:54:01.370Z,3.60
2022-11-29T06:56:29.244Z,3.55
2022-11-29T06:58:57.132Z,3.60
2022-11-29T07:01:24.950Z,3.55
2022-11-29T07:03:52.773Z,3.80
2022-11-29T07:06:20.595Z,3.47
2022-11-29T07:08:48.346Z,3.40
2022-11-29T07:11:16.088Z,3.45
2022-11-29T07:13:43.980Z,3.50
2022-11-29T07:16:11.851Z,3.70
2022-11-29T07:18:39.712Z,3.25
2022-11-29T07:21:07.612Z,3.40
2022-11-29T07:23:35.414Z,3.75
2022-11-29T07:26:03.293Z,3.42
2022-11-29T07:28:31.193Z,3.30
2022-11-29T07:30:59.292Z,3.47
2022-11-29T07:33:27.256Z,3.38
2022-11-29T07:35:55.056Z,3.70
2022-11-29T07:38:22.830Z,3.28
2022-11-29T07:40:50.566Z,3.22
2022-11-29T07:43:18.499Z,3.20
2022-11-29T07:45:46.732Z,3.40
2022-11-29T07:48:14.552Z,3.22
2022-11-29T07:50:42.514Z,3.60
2022-11-29T07:53:10.343Z,3.33
2022-11-29T07:55:38.121Z,3.70
2022-11-29T07:58:05.922Z,3.30
2022-11-29T08:00:33.751Z,3.40
2022-11-29T08:03:01.598Z,3.65
2022-11-29T08:05:29.340Z,3.22
2022-11-29T08:07:57.110Z,3.00
2022-11-29T08:10:24.998Z,3.30
2022-11-29T08:12:52.872Z,3.15
2022-11-29T08:15:20.649Z,3.70
2022-11-29T08:17:48.531Z,3.42
2022-11-29T08:20:16.497Z,3.13
2022-11-29T08:22:44.323Z,3.17
2022-11-29T08:25:12.197Z,3.50
2022-11-29T08:27:41.665Z,3.25
2022-11-29T08:30:10.532Z,3.00
2022-11-29T08:32:38.322Z,3.22
2022-11-29T08:35:06.070Z,3.40
2022-11-29T08:37:33.924Z,3.25
2022-11-29T08:40:10.052Z,3.13
2022-11-29T08:42:39.017Z,3.00
2022-11-29T08:45:06.962Z,3.03
2022-11-29T08:51:07.477Z,3.30
2022-11-29T08:53:46.216Z,3.50
2022-11-29T08:56:53.300Z,2.85
2022-11-29T08:59:01.901Z,3.25
2022-11-29T09:01:30.168Z,3.10
2022-11-29T09:04:02.899Z,3.50
2022-11-29T09:06:30.637Z,2.90
2022-11-29T09:08:58.411Z,3.10
2022-11-29T09:11:26.132Z,3.15
2022-11-29T09:13:54.454Z,3.17
2022-11-29T09:16:22.649Z,3.05
2022-11-29T09:18:52.190Z,2.85
2022-11-29T09:21:20.119Z,2.97
2022-11-29T09:23:47.936Z,3.35
2022-11-29T09:26:15.711Z,3.17
2022-11-29T09:28:43.524Z,2.80
2022-11-29T09:31:11.314Z,3.05
2022-11-29T09:33:39.828Z,3.13
2022-11-29T09:36:07.749Z,2.78
2022-11-29T09:38:35.621Z,3.10
2022-11-29T09:41:03.426Z,3.03
2022-11-29T09:43:31.247Z,2.92
2022-11-29T09:45:59.063Z,3.05
2022-11-29T09:48:26.870Z,3.17
2022-11-29T09:50:54.607Z,2.97
2022-11-29T09:53:22.442Z,3.05
2022-11-29T09:55:50.254Z,3.15
2022-11-29T09:58:18.150Z,3.10
2022-11-29T10:00:45.904Z,2.85
2022-11-29T10:03:13.730Z,3.22
2022-11-29T10:05:41.484Z,2.88
2022-11-29T10:08:10.678Z,3.20
2022-11-29T10:10:40.936Z,2.85
2022-11-29T10:13:08.696Z,3.03
2022-11-29T10:15:36.594Z,2.70
2022-11-29T10:18:10.639Z,3.05
2022-11-29T10:20:42.463Z,2.90
2022-11-29T10:23:12.698Z,3.00
2022-11-29T10:25:40.497Z,3.05
2022-11-29T10:28:08.258Z,3.10
2022-11-29T10:30:36.114Z,2.80
2022-11-29T10:33:04.060Z,3.10
2022-11-29T10:35:31.908Z,2.80
2022-11-29T10:38:28.961Z,2.60
2022-11-29T10:40:47.391Z,2.83
2022-11-29T10:43:15.131Z,2.78
2022-11-29T10:45:45.881Z,2.72
2022-11-29T10:48:13.792Z,2.65
2022-11-29T10:50:42.813Z,2.78
2022-11-29T10:53:10.580Z,2.92
2022-11-29T10:55:38.598Z,2.88
2022-11-29T10:58:06.317Z,2.72
2022-11-29T11:00:34.120Z,2.70
2022-11-29T11:03:01.938Z,2.83
2022-11-29T11:05:31.725Z,2.95
2022-11-29T11:07:59.734Z,2.75
2022-11-29T11:10:27.674Z,2.53
2022-11-29T11:12:55.494Z,2.45
2022-11-29T11:15:23.265Z,2.42
2022-11-29T11:17:51.112Z,2.60
2022-11-29T11:20:18.899Z,2.63
2022-11-29T11:22:46.755Z,2.50
2022-11-29T11:25:14.558Z,2.60
2022-11-29T11:27:42.483Z,2.97
2022-11-29T11:30:10.388Z,2.53
2022-11-29T11:32:38.307Z,2.90
2022-11-29T11:35:06.186Z,2.47
2022-11-29T11:37:35.791Z,2.50
2022-11-29T11:40:04.005Z,2.60
2022-11-29T11:42:42.808Z,2.30
2022-11-29T11:45:10.701Z,2.60
2022-11-29T11:47:38.519Z,2.80
2022-11-29T11:50:07.923Z,2.60
2022-11-29T11:52:40.054Z,2.60
2022-11-29T11:55:08.965Z,2.60
2022-11-29T11:57:36.709Z,2.55
2022-11-29T12:00:07.150Z,2.50
2022-11-29T12:02:35.273Z,2.80
2022-11-29T12:05:03.129Z,2.80
2022-11-29T12:07:59.792Z,2.50
2022-11-29T12:10:18.501Z,2.80
2022-11-29T12:12:46.238Z,2.33
2022-11-29T12:15:13.952Z,2.63
2022-11-29T12:17:41.866Z,2.60
2022-11-29T12:20:10.229Z,2.60
2022-11-29T12:22:38.068Z,2.53
2022-11-29T12:25:05.785Z,2.72
2022-11-29T12:27:33.534Z,2.58
2022-11-29T12:30:01.235Z,2.65
2022-11-29T12:32:28.974Z,2.85
2022-11-29T12:34:56.708Z,2.75
2022-11-29T12:37:26.894Z,2.78
2022-11-29T12:39:56.000Z,2.40
2022-11-29T12:42:23.756Z,2.80
2022-11-29T12:44:51.497Z,2.80
2022-11-29T12:47:36.021Z,2.67
2022-11-29T12:50:05.055Z,2.53
2022-11-29T12:52:32.859Z,2.90
2022-11-29T12:55:00.599Z,2.30
2022-11-29T12:57:28.391Z,2.40
2022-11-29T12:59:57.368Z,2.50
2022-11-29T13:02:25.235Z,2.70
2022-11-29T13:04:59.532Z,3.10
2022-11-29T13:07:27.805Z,2.47
2022-11-29T13:09:55.546Z,2.50
2022-11-29T13:12:25.619Z,2.80
2022-11-29T13:14:53.484Z,2.33
2022-11-29T13:17:21.277Z,2.55
2022-11-29T13:19:49.158Z,2.53
2022-11-29T13:22:16.867Z,2.67
2022-11-29T13:24:45.056Z,2.88
2022-11-29T13:27:13.010Z,2.90
2022-11-29T13:29:40.777Z,2.70
2022-11-29T13:32:13.034Z,2.63
2022-11-29T13:34:42.609Z,2.50
2022-11-29T13:37:10.513Z,2.88
2022-11-29T13:39:38.300Z,2.60
2022-11-29T13:42:06.070Z,2.47
2022-11-29T13:44:33.954Z,2.42
2022-11-29T13:47:01.670Z,2.50
2022-11-29T13:49:29.446Z,2.90
2022-11-29T13:51:57.135Z,2.80
2022-11-29T13:54:24.817Z,2.72
2022-11-29T13:56:52.554Z,2.50
2022-11-29T13:59:20.279Z,2.50
2022-11-29T14:01:48.130Z,2.40
2022-11-29T14:04:15.959Z,2.53
2022-11-29T14:06:43.712Z,2.67
2022-11-29T14:09:18.817Z,2.50
2022-11-29T14:11:48.759Z,2.55
2022-11-29T14:14:16.495Z,2.67
2022-11-29T14:16:44.240Z,2.80
2022-11-29T14:19:11.995Z,2.47
2022-11-29T14:21:39.770Z,2.72
2022-11-29T14:24:07.566Z,2.70
2022-11-29T14:26:35.301Z,2.58
2022-11-29T14:29:02.992Z,2.40
2022-11-29T14:31:30.714Z,2.45
2022-11-29T14:33:58.488Z,2.47
2022-11-29T14:36:26.180Z,2.70
2022-11-29T14:38:53.933Z,2.78
2022-11-29T14:41:21.763Z,2.75
2022-11-29T14:43:49.521Z,2.90
2022-11-29T14:46:17.318Z,2.45
2022-11-29T14:48:45.129Z,2.15
2022-11-29T14:51:12.869Z,2.20
2022-11-29T14:53:40.603Z,2.20
2022-11-29T14:56:08.356Z,2.10
2022-11-29T14:58:36.076Z,1.90
2022-11-29T15:01:09.846Z,1.98
2022-11-29T15:03:38.609Z,1.80
2022-11-29T15:06:06.414Z,1.90
2022-11-29T15:08:34.946Z,1.70
2022-11-29T15:11:02.715Z,1.92
2022-11-29T15:13:31.804Z,1.90
2022-11-29T15:16:02.979Z,1.90
2022-11-29T15:18:33.587Z,1.90
2022-11-29T15:21:01.302Z,2.35
2022-11-29T15:23:29.135Z,2.00
2022-11-29T15:25:58.168Z,2.10
2022-11-29T15:28:26.063Z,2.60
2022-11-29T15:30:53.829Z,2.38
2022-11-29T15:33:21.557Z,2.65
2022-11-29T15:35:49.666Z,2.30
2022-11-29T15:38:17.397Z,2.50
2022-11-29T15:40:51.304Z,2.55
2022-11-29T15:43:19.073Z,2.40
2022-11-29T15:45:46.861Z,2.50
2022-11-29T15:48:14.625Z,2.92
2022-11-29T15:50:42.398Z,3.00
2022-11-29T15:53:10.134Z,2.72
2022-11-29T15:55:37.853Z,2.80
2022-11-29T15:58:08.896Z,2.65
2022-11-29T16:00:36.861Z,2.60
2022-11-29T16:03:04.580Z,2.58
2022-11-29T16:05:32.312Z,2.88
2022-11-29T16:08:00.179Z,2.80
2022-11-29T16:10:31.949Z,3.40
2022-11-29T16:13:02.867Z,3.10
2022-11-29T16:15:30.750Z,2.92
2022-11-29T16:17:58.463Z,2.78
2022-11-29T16:20:26.222Z,3.17
2022-11-29T16:22:53.993Z,3.50
2022-11-29T16:25:21.802Z,3.78
2022-11-29T16:27:49.582Z,3.50
2022-11-29T16:30:17.475Z,3.45
2022-11-29T16:32:49.329Z,3.40
2022-11-29T16:35:17.052Z,3.35
2022-11-29T16:37:44.852Z,3.20
2022-11-29T16:40:12.585Z,3.30
2022-11-29T16:42:40.330Z,3.50
2022-11-29T16:45:08.056Z,3.08
2022-11-29T16:47:38.879Z,3.33
2022-11-29T16:50:10.200Z,3.20
2022-11-29T16:52:38.001Z,2.95
2022-11-29T16:55:05.915Z,2.80
2022-11-29T16:57:33.644Z,3.25
2022-11-29T17:00:11.338Z,2.95
2022-11-29T17:02:39.112Z,2.60
2022-11-29T17:05:07.050Z,2.88
2022-11-29T17:07:34.781Z,2.72
2022-11-29T17:10:02.774Z,2.85
2022-11-29T17:12:30.580Z,2.97
2022-11-29T17:14:58.350Z,2.80
2022-11-29T17:17:26.098Z,2.92
2022-11-29T17:19:54.049Z,2.60
2022-11-29T17:22:21.824Z,2.95
2022-11-29T17:24:49.895Z,2.58
2022-11-29T17:27:18.028Z,2.80
2022-11-29T17:29:45.803Z,2.88
2022-11-29T17:32:13.568Z,2.95
2022-11-29T17:34:41.350Z,2.67
2022-11-29T17:37:09.118Z,3.08
2022-11-29T17:39:37.064Z,2.92
2022-11-29T17:42:04.779Z,3.10
2022-11-29T17:44:33.983Z,2.88
2022-11-29T17:47:01.860Z,2.97
2022-11-29T17:49:29.678Z,2.95
2022-11-29T17:51:57.387Z,2.85
2022-11-29T17:54:25.116Z,3.03
2022-11-29T17:56:52.894Z,2.95
2022-11-29T17:59:20.694Z,3.00
2022-11-29T18:01:48.499Z,2.97
2022-11-29T18:04:16.403Z,3.10
2022-11-29T18:06:49.548Z,2.60
2022-11-29T18:09:17.723Z,2.97
2022-11-29T18:11:48.676Z,2.90
2022-11-29T18:14:17.346Z,2.80
2022-11-29T18:16:45.943Z,2.80
2022-11-29T18:19:13.891Z,2.50
2022-11-29T18:21:41.627Z,2.80
2022-11-29T18:24:09.501Z,2.78
2022-11-29T18:26:37.332Z,2.58
2022-11-29T18:29:05.337Z,3.03
2022-11-29T18:31:33.013Z,2.60
2022-11-29T18:34:00.756Z,2.67
2022-11-29T18:36:28.478Z,2.65
2022-11-29T18:38:56.201Z,2.72
2022-11-29T18:41:23.944Z,2.53
2022-11-29T18:43:51.707Z,2.67
2022-11-29T18:46:19.585Z,2.78
2022-11-29T18:48:47.600Z,2.50
2022-11-29T18:51:19.002Z,2.70
2022-11-29T18:53:46.787Z,2.90
2022-11-29T18:56:15.682Z,2.70
2022-11-29T18:58:43.502Z,2.90
2022-11-29T19:01:11.321Z,2.50
2022-11-29T19:03:39.188Z,2.53
2022-11-29T19:06:06.979Z,2.60
2022-11-29T19:08:34.733Z,2.65
2022-11-29T19:11:02.514Z,2.42
2022-11-29T19:13:30.267Z,2.75
2022-11-29T19:15:58.161Z,2.88
2022-11-29T19:18:26.058Z,2.70
2022-11-29T19:20:54.058Z,2.85
2022-11-29T19:23:21.855Z,2.90
2022-11-29T19:25:49.578Z,2.75
2022-11-29T19:28:18.640Z,2.80
2022-11-29T19:30:46.551Z,2.70
2022-11-29T19:33:14.374Z,2.88
2022-11-29T19:35:42.080Z,3.05
2022-11-29T19:38:09.861Z,2.92
2022-11-29T19:40:37.726Z,2.70
2022-11-29T19:43:05.422Z,3.10
2022-11-29T19:45:33.134Z,2.72
2022-11-29T19:48:00.832Z,2.90
2022-11-29T19:50:28.530Z,2.70
2022-11-29T19:52:56.301Z,2.80
2022-11-29T19:55:25.508Z,2.90
2022-11-29T19:57:53.393Z,2.90
2022-11-29T20:00:21.223Z,3.00
2022-11-29T20:02:49.019Z,3.05
2022-11-29T20:05:16.786Z,2.97
2022-11-29T20:07:44.577Z,3.00
2022-11-29T20:10:12.337Z,2.90
2022-11-29T20:12:40.036Z,2.85
2022-11-29T20:15:07.784Z,3.13
2022-11-29T20:17:35.503Z,2.95
2022-11-29T20:20:03.329Z,2.75
2022-11-29T20:22:31.105Z,2.70
2022-11-29T20:24:58.905Z,2.83
2022-11-29T20:27:26.694Z,2.63
2022-11-29T20:29:54.438Z,3.13
2022-11-29T20:32:22.715Z,2.63
2022-11-29T20:34:50.452Z,2.50
2022-11-29T20:37:18.170Z,2.85
2022-11-29T20:39:46.281Z,3.20
2022-11-29T20:42:14.216Z,2.70
2022-11-29T20:44:42.002Z,2.92
2022-11-29T20:47:09.691Z,3.00
2022-11-29T20:49:37.432Z,2.78
2022-11-29T20:52:05.214Z,2.85
2022-11-29T20:54:32.924Z,2.87
2022-11-29T20:57:00.649Z,2.80
2022-11-29T20:59:28.424Z,2.80
2022-11-29T21:01:57.538Z,3.10
2022-11-29T21:04:26.370Z,2.60
2022-11-29T21:06:54.052Z,2.92
2022-11-29T21:09:21.779Z,2.88
2022-11-29T21:11:49.651Z,3.10
2022-11-29T21:14:17.642Z,3.03
2022-11-29T21:16:45.329Z,3.00
2022-11-29T21:19:13.216Z,3.00
2022-11-29T21:21:40.968Z,2.92
2022-11-29T21:24:08.771Z,3.20
2022-11-29T21:26:41.478Z,2.88
2022-11-29T21:29:09.652Z,3.10
2022-11-29T21:31:37.675Z,3.20
2022-11-29T21:34:05.531Z,3.00
2022-11-29T21:36:33.291Z,3.17
2022-11-29T21:39:05.158Z,3.15
2022-11-29T21:41:33.265Z,3.00
2022-11-29T21:44:08.733Z,3.22
2022-11-29T21:46:36.677Z,3.00
2022-11-29T21:49:04.563Z,2.67
2022-11-29T21:51:32.309Z,3.03
2022-11-29T21:54:00.032Z,2.83
2022-11-29T21:56:27.803Z,2.80
2022-11-29T21:58:57.544Z,2.67
2022-11-29T22:01:27.255Z,2.75
2022-11-29T22:03:55.239Z,3.05
2022-11-29T22:06:24.330Z,2.90
2022-11-29T22:08:52.370Z,3.25
2022-11-29T22:11:30.804Z,2.80
2022-11-29T22:14:18.156Z,2.45
2022-11-29T22:16:46.157Z,3.13
2022-11-29T22:19:14.087Z,3.00
2022-11-29T22:21:53.804Z,2.92
2022-11-29T22:24:21.937Z,2.97
2022-11-29T22:26:50.041Z,2.92
2022-11-29T22:29:18.003Z,2.90
2022-11-29T22:31:46.004Z,3.00
2022-11-29T22:34:14.050Z,3.13
2022-11-29T22:36:41.920Z,3.00
2022-11-29T22:39:10.111Z,2.97
2022-11-29T22:41:38.008Z,2.80
2022-11-29T22:44:06.098Z,2.88
2022-11-29T22:46:35.606Z,3.00
2022-11-29T22:49:03.673Z,3.10
2022-11-29T22:51:32.225Z,3.05
2022-11-29T22:54:00.056Z,2.90
2022-11-29T22:56:28.189Z,2.80
2022-11-29T22:58:56.082Z,2.75
2022-11-29T23:01:24.003Z,3.03
2022-11-29T23:03:53.255Z,3.00
2022-11-29T23:06:21.212Z,3.08
2022-11-29T23:08:49.309Z,2.88
2022-11-29T23:11:17.171Z,3.05
2022-11-29T23:13:45.269Z,2.95
2022-11-29T23:16:13.141Z,3.00
2022-11-29T23:18:42.382Z,3.17
2022-11-29T23:21:10.426Z,2.83
2022-11-29T23:23:38.319Z,2.92
2022-11-29T23:26:06.355Z,2.80
2022-11-29T23:28:34.259Z,3.00
2022-11-29T23:31:02.132Z,2.80
2022-11-29T23:33:30.260Z,2.90
2022-11-29T23:35:58.133Z,2.97
2022-11-29T23:38:26.295Z,3.05
2022-11-29T23:40:54.151Z,3.53
2022-11-29T23:43:22.034Z,3.03
2022-11-29T23:45:50.053Z,3.20
2022-11-29T23:48:17.908Z,2.95
2022-11-29T23:50:48.642Z,2.95
2022-11-29T23:53:16.799Z,3.08
2022-11-29T23:55:44.679Z,3.30
2022-11-29T23:58:12.646Z,3.20
